Time;durP1;ratioP1;P1;durP2;ratioP2;P2;SDS_P1;SDS_P2;PMS_P1;PMS_P2;Temp;Humidity;BMP_temperature;BMP_pressure;BME280_temperature;BME280_humidity;BME280_pressure;Samples;Min_cycle;Max_cycle;Signal;HPM_P1;HPM_P2
2023/09/16 00:00:06;;;;;;;0.60;0.60;;;13.10;99.90;;;;;;5073773;28;20242;-75
2023/09/16 00:02:32;;;;;;;0.50;0.50;;;13.20;99.90;;;;;;5073753;28;20199;-75
2023/09/16 00:04:57;;;;;;;0.50;0.50;;;13.20;99.90;;;;;;5073469;28;20225;-75
2023/09/16 00:07:23;;;;;;;0.70;0.70;;;13.20;99.90;;;;;;5055635;28;20279;-75
2023/09/16 00:09:50;;;;;;;0.65;0.65;;;13.30;99.90;;;;;;5073726;28;20667;-75
2023/09/16 00:12:15;;;;;;;0.50;0.50;;;13.30;99.90;;;;;;5073501;28;20601;-75
2023/09/16 00:14:41;;;;;;;0.40;0.40;;;13.30;99.90;;;;;;5073227;28;20276;-75
2023/09/16 00:17:08;;;;;;;0.70;0.70;;;13.30;99.90;;;;;;5073337;28;20664;-75
2023/09/16 00:19:34;;;;;;;0.50;0.50;;;13.30;99.90;;;;;;5072925;28;20208;-75
2023/09/16 00:22:00;;;;;;;1.40;1.23;;;13.30;99.90;;;;;;5073379;28;20250;-75
2023/09/16 00:24:25;;;;;;;0.52;0.52;;;13.30;99.90;;;;;;5058235;28;20198;-75
2023/09/16 00:26:51;;;;;;;1.30;1.20;;;13.30;99.90;;;;;;5053315;28;20545;-75
2023/09/16 00:29:17;;;;;;;0.50;0.50;;;13.30;99.90;;;;;;5053268;28;20186;-75
2023/09/16 00:31:43;;;;;;;0.40;0.40;;;13.30;99.90;;;;;;5064604;28;20193;-75
2023/09/16 00:34:08;;;;;;;1.92;0.77;;;13.30;99.90;;;;;;5073055;28;20189;-75
2023/09/16 00:36:34;;;;;;;0.63;0.63;;;13.30;99.90;;;;;;5073098;28;20193;-75
2023/09/16 00:39:00;;;;;;;0.47;0.47;;;13.30;99.90;;;;;;5073107;28;20253;-75
2023/09/16 00:41:25;;;;;;;2.55;1.20;;;13.30;99.90;;;;;;5072824;28;20468;-75
2023/09/16 00:43:52;;;;;;;0.50;0.50;;;13.20;99.90;;;;;;5072843;28;20205;-75
2023/09/16 00:46:17;;;;;;;0.60;0.60;;;13.20;99.90;;;;;;5072871;28;20217;-75
2023/09/16 00:48:45;;;;;;;0.40;0.40;;;13.10;99.90;;;;;;5072832;28;20537;-75
2023/09/16 00:51:13;;;;;;;0.55;0.55;;;13.10;99.90;;;;;;5073216;28;20212;-75
2023/09/16 00:53:41;;;;;;;0.50;0.50;;;13.10;99.90;;;;;;5072786;28;20192;-75
2023/09/16 00:56:07;;;;;;;0.77;0.77;;;13.10;99.90;;;;;;5072723;28;20192;-74
2023/09/16 00:58:34;;;;;;;0.38;0.38;;;13.10;99.90;;;;;;5072636;28;20203;-75
2023/09/16 01:01:01;;;;;;;0.43;0.43;;;13.00;99.90;;;;;;5072609;28;20216;-75
2023/09/16 01:03:27;;;;;;;0.40;0.40;;;13.00;99.90;;;;;;5072350;28;20207;-75
2023/09/16 01:05:54;;;;;;;0.60;0.60;;;12.90;99.90;;;;;;5072503;28;20224;-75
2023/09/16 01:08:20;;;;;;;0.50;0.50;;;12.90;99.90;;;;;;5071553;28;20258;-75
2023/09/16 01:10:46;;;;;;;0.40;0.40;;;12.90;99.90;;;;;;5072634;28;20219;-75
2023/09/16 01:13:12;;;;;;;0.73;0.73;;;12.80;99.90;;;;;;5072160;28;20613;-75
2023/09/16 01:15:52;;;;;;;0.60;0.60;;;12.80;99.90;;;;;;5071720;28;20212;-75
2023/09/16 01:18:36;;;;;;;0.60;0.60;;;12.80;99.90;;;;;;5071911;28;20205;-75
2023/09/16 01:21:06;;;;;;;0.50;0.50;;;12.70;99.90;;;;;;5072381;28;20223;-75
2023/09/16 01:23:32;;;;;;;0.55;0.55;;;12.70;99.90;;;;;;5071864;28;20650;-74
2023/09/16 01:25:58;;;;;;;0.40;0.40;;;12.70;99.90;;;;;;5071812;28;20283;-74
2023/09/16 01:28:25;;;;;;;0.50;0.50;;;12.60;99.90;;;;;;5072176;28;20283;-75
2023/09/16 01:30:53;;;;;;;0.40;0.40;;;12.60;99.90;;;;;;5072030;28;20292;-75
2023/09/16 01:33:43;;;;;;;0.50;0.50;;;12.50;99.90;;;;;;5072127;28;20649;-71
2023/09/16 01:36:18;;;;;;;0.60;0.60;;;12.50;99.90;;;;;;5072389;28;20679;-70
2023/09/16 01:38:51;;;;;;;0.50;0.50;;;12.50;99.90;;;;;;5072206;28;20227;-70
2023/09/16 01:41:19;;;;;;;0.63;0.63;;;12.50;99.90;;;;;;5072041;28;20284;-72
2023/09/16 01:43:45;;;;;;;0.50;0.50;;;12.50;99.90;;;;;;5072366;28;20250;-71
2023/09/16 01:46:12;;;;;;;0.70;0.70;;;12.50;99.90;;;;;;5071887;28;20200;-70
2023/09/16 01:48:37;;;;;;;0.40;0.40;;;12.50;99.90;;;;;;5071886;28;20203;-70
2023/09/16 01:51:03;;;;;;;0.50;0.50;;;12.40;99.90;;;;;;5072011;28;20188;-70
2023/09/16 01:53:29;;;;;;;0.57;0.57;;;12.40;99.90;;;;;;5071632;28;20185;-71
2023/09/16 01:55:55;;;;;;;0.50;0.50;;;12.40;99.90;;;;;;5071135;28;20185;-71
2023/09/16 01:58:21;;;;;;;0.50;0.50;;;12.30;99.90;;;;;;5071746;28;20192;-71
2023/09/16 02:00:47;;;;;;;0.98;0.98;;;12.30;99.90;;;;;;5071916;28;20256;-70
2023/09/16 02:03:13;;;;;;;0.43;0.43;;;12.30;99.90;;;;;;5071762;28;20193;-70
2023/09/16 02:05:38;;;;;;;0.60;0.60;;;12.30;99.90;;;;;;5071595;28;20237;-70
2023/09/16 02:08:04;;;;;;;1.00;0.73;;;12.30;99.90;;;;;;5071616;28;20675;-70
2023/09/16 02:10:30;;;;;;;0.50;0.50;;;12.30;99.90;;;;;;5071720;28;20551;-70
2023/09/16 02:12:56;;;;;;;0.50;0.50;;;12.30;99.90;;;;;;5071340;28;20201;-70
2023/09/16 02:15:21;;;;;;;0.40;0.40;;;12.40;99.90;;;;;;5071909;28;20192;-71
2023/09/16 02:17:47;;;;;;;0.68;0.65;;;12.40;99.90;;;;;;5071786;28;20216;-70
2023/09/16 02:20:13;;;;;;;0.52;0.52;;;12.40;99.90;;;;;;5071624;28;20710;-71
2023/09/16 02:22:40;;;;;;;0.55;0.55;;;12.40;99.90;;;;;;5071648;28;20192;-70
2023/09/16 02:25:06;;;;;;;6.93;1.60;;;12.30;99.90;;;;;;5071530;28;20344;-71
2023/09/16 02:27:32;;;;;;;0.50;0.50;;;12.20;99.90;;;;;;5071591;28;20652;-71
2023/09/16 02:29:58;;;;;;;0.60;0.60;;;12.10;99.90;;;;;;5053616;28;20200;-70
2023/09/16 02:32:23;;;;;;;0.50;0.50;;;12.10;99.90;;;;;;5071523;28;20553;-70
2023/09/16 02:34:49;;;;;;;0.70;0.70;;;12.10;99.90;;;;;;5071767;28;20189;-75
2023/09/16 02:37:15;;;;;;;0.52;0.52;;;12.10;99.90;;;;;;5071612;28;20193;-75
2023/09/16 02:39:40;;;;;;;0.55;0.55;;;12.00;99.90;;;;;;5071407;28;20204;-75
2023/09/16 02:42:06;;;;;;;0.52;0.52;;;12.00;99.90;;;;;;5071460;28;20318;-75
2023/09/16 02:44:32;;;;;;;0.50;0.50;;;12.00;99.90;;;;;;5071878;28;20197;-75
2023/09/16 02:46:57;;;;;;;0.70;0.70;;;12.00;99.90;;;;;;5071416;28;20192;-75
2023/09/16 02:49:23;;;;;;;0.60;0.60;;;12.00;99.90;;;;;;5053373;28;20197;-75
2023/09/16 02:51:49;;;;;;;0.57;0.57;;;11.90;99.90;;;;;;5071353;28;20633;-75
2023/09/16 02:54:14;;;;;;;0.47;0.47;;;11.90;99.90;;;;;;5071472;28;20331;-75
2023/09/16 02:56:40;;;;;;;0.50;0.50;;;11.90;99.90;;;;;;5071356;28;20220;-75
2023/09/16 02:59:06;;;;;;;0.82;0.82;;;11.90;99.90;;;;;;5071264;28;20692;-75
2023/09/16 03:01:31;;;;;;;0.90;0.75;;;11.90;99.90;;;;;;5070333;28;20274;-75
2023/09/16 03:03:57;;;;;;;0.50;0.50;;;11.80;99.90;;;;;;5070854;28;20575;-75
2023/09/16 03:06:23;;;;;;;0.55;0.55;;;11.70;99.90;;;;;;5072784;28;20209;-75
2023/09/16 03:08:49;;;;;;;0.50;0.50;;;11.70;99.90;;;;;;5074729;28;20227;-75
2023/09/16 03:11:15;;;;;;;0.60;0.60;;;11.60;99.90;;;;;;5074977;28;20223;-75
2023/09/16 03:13:42;;;;;;;0.60;0.60;;;11.70;99.90;;;;;;5074602;28;20273;-75
2023/09/16 03:16:18;;;;;;;0.50;0.50;;;11.70;99.90;;;;;;5074479;28;20201;-75
2023/09/16 03:18:49;;;;;;;0.50;0.50;;;11.60;99.90;;;;;;5056564;28;20200;-75
2023/09/16 03:21:16;;;;;;;0.50;0.50;;;11.60;99.90;;;;;;5074495;28;20203;-75
2023/09/16 03:23:43;;;;;;;0.75;0.75;;;11.60;99.90;;;;;;5074364;28;20188;-75
2023/09/16 03:26:10;;;;;;;2.38;0.70;;;11.50;99.90;;;;;;5056410;28;20752;-76
2023/09/16 03:28:38;;;;;;;0.50;0.50;;;11.50;99.90;;;;;;5074351;28;20538;-75
2023/09/16 03:31:03;;;;;;;0.63;0.63;;;11.40;99.90;;;;;;5074293;28;20553;-75
2023/09/16 03:33:29;;;;;;;0.50;0.50;;;11.40;99.90;;;;;;5056337;28;20193;-75
2023/09/16 03:35:55;;;;;;;1.20;0.82;;;11.30;99.90;;;;;;5074296;28;20255;-74
2023/09/16 03:38:22;;;;;;;0.50;0.50;;;11.30;99.90;;;;;;5074058;28;20223;-75
2023/09/16 03:40:47;;;;;;;0.50;0.50;;;11.30;99.90;;;;;;5074352;28;20197;-75
2023/09/16 03:43:13;;;;;;;0.60;0.60;;;11.40;99.90;;;;;;5074392;28;20200;-76
2023/09/16 03:45:39;;;;;;;0.80;0.80;;;11.50;99.90;;;;;;5074094;28;20223;-75
2023/09/16 03:48:05;;;;;;;0.60;0.60;;;11.60;99.90;;;;;;5056099;28;20628;-75
2023/09/16 03:50:31;;;;;;;0.50;0.50;;;11.70;99.90;;;;;;5073896;28;20189;-75
2023/09/16 03:52:56;;;;;;;0.60;0.60;;;11.90;99.90;;;;;;5074067;28;20699;-75
2023/09/16 03:55:22;;;;;;;0.50;0.50;;;11.90;99.90;;;;;;5073915;28;20229;-74
2023/09/16 03:57:47;;;;;;;0.60;0.60;;;12.00;99.90;;;;;;5074037;28;20197;-75
2023/09/16 04:00:13;;;;;;;0.50;0.50;;;11.90;99.90;;;;;;5073896;28;20561;-72
2023/09/16 04:02:39;;;;;;;0.80;0.80;;;12.10;99.90;;;;;;5055711;28;20588;-71
2023/09/16 04:05:07;;;;;;;0.63;0.63;;;12.20;99.90;;;;;;5073211;28;20699;-75
2023/09/16 04:07:34;;;;;;;0.50;0.50;;;12.20;99.90;;;;;;5039621;28;20551;-73
2023/09/16 04:10:00;;;;;;;0.50;0.50;;;12.10;99.90;;;;;;5073750;28;20596;-74
2023/09/16 04:12:26;;;;;;;0.50;0.50;;;12.10;99.90;;;;;;5064784;28;20194;-75
2023/09/16 04:14:52;;;;;;;0.60;0.60;;;12.10;99.90;;;;;;5053775;28;20557;-74
2023/09/16 04:17:19;;;;;;;0.50;0.50;;;12.00;99.90;;;;;;5052546;28;20193;-75
2023/09/16 04:19:44;;;;;;;0.70;0.70;;;11.90;99.90;;;;;;5053755;28;20190;-75
2023/09/16 04:22:10;;;;;;;0.93;0.88;;;11.80;99.90;;;;;;5053495;28;20691;-75
2023/09/16 04:24:36;;;;;;;0.80;0.80;;;11.80;99.90;;;;;;5053220;28;20208;-75
2023/09/16 04:27:01;;;;;;;0.73;0.73;;;11.70;99.90;;;;;;5053468;28;20197;-74
2023/09/16 04:29:27;;;;;;;0.50;0.50;;;11.70;99.90;;;;;;5053493;28;20193;-75
2023/09/16 04:31:53;;;;;;;0.52;0.52;;;11.70;99.90;;;;;;5081431;28;20212;-74
2023/09/16 04:34:19;;;;;;;0.90;0.90;;;11.70;99.90;;;;;;5093312;28;20550;-74
2023/09/16 04:36:45;;;;;;;0.70;0.70;;;11.70;99.90;;;;;;5075219;28;20211;-75
2023/09/16 04:39:10;;;;;;;0.60;0.60;;;11.60;99.90;;;;;;5093464;28;20193;-75
2023/09/16 04:41:36;;;;;;;0.55;0.55;;;11.60;99.90;;;;;;5074991;28;20196;-75
2023/09/16 04:44:03;;;;;;;0.63;0.63;;;11.60;99.90;;;;;;5093679;28;20203;-75
2023/09/16 04:46:29;;;;;;;1.25;1.15;;;11.50;99.90;;;;;;5093146;28;20216;-74
2023/09/16 04:48:55;;;;;;;0.50;0.50;;;11.50;99.90;;;;;;5093530;28;20529;-75
2023/09/16 04:51:20;;;;;;;0.45;0.45;;;11.50;99.90;;;;;;5093144;28;20184;-75
2023/09/16 04:53:49;;;;;;;0.60;0.60;;;11.50;99.90;;;;;;5075159;28;20553;-75
2023/09/16 04:56:15;;;;;;;0.93;0.85;;;11.50;99.90;;;;;;5093063;28;20188;-75
2023/09/16 04:58:41;;;;;;;0.50;0.50;;;11.50;99.90;;;;;;5092909;28;20244;-76
2023/09/16 05:01:07;;;;;;;0.50;0.50;;;11.50;99.90;;;;;;5082609;28;20243;-74
2023/09/16 05:03:33;;;;;;;0.50;0.50;;;11.50;99.90;;;;;;5072614;28;20197;-74
2023/09/16 05:05:59;;;;;;;0.50;0.50;;;11.50;99.90;;;;;;5072494;28;20529;-74
2023/09/16 05:08:24;;;;;;;0.70;0.70;;;11.50;99.90;;;;;;5054428;28;20281;-74
2023/09/16 05:10:54;;;;;;;0.70;0.70;;;11.60;99.90;;;;;;5072628;28;20195;-74
2023/09/16 05:13:20;;;;;;;0.60;0.60;;;11.70;99.90;;;;;;5056180;28;20200;-74
2023/09/16 05:15:50;;;;;;;0.50;0.50;;;11.80;99.90;;;;;;5052444;28;20194;-74
2023/09/16 05:18:16;;;;;;;0.50;0.50;;;11.90;99.90;;;;;;5052390;28;20212;-74
2023/09/16 05:20:42;;;;;;;1.02;1.00;;;12.00;99.90;;;;;;5066392;28;20215;-74
2023/09/16 05:23:08;;;;;;;1.10;1.00;;;12.10;99.90;;;;;;5092362;28;20196;-74
2023/09/16 05:25:33;;;;;;;0.70;0.70;;;12.10;99.90;;;;;;5092374;28;20206;-75
2023/09/16 05:27:59;;;;;;;0.50;0.50;;;12.20;99.90;;;;;;5092447;28;20196;-74
2023/09/16 05:30:25;;;;;;;0.50;0.50;;;12.30;99.90;;;;;;5089612;28;20224;-74
2023/09/16 05:32:50;;;;;;;0.73;0.73;;;12.40;99.90;;;;;;5072333;28;20192;-74
2023/09/16 05:35:16;;;;;;;0.50;0.50;;;12.50;99.90;;;;;;5072182;28;20203;-75
2023/09/16 05:37:42;;;;;;;0.60;0.60;;;12.60;99.90;;;;;;5072220;28;20189;-74
2023/09/16 05:40:08;;;;;;;0.60;0.55;;;12.60;99.90;;;;;;5072173;28;20199;-74
2023/09/16 05:42:34;;;;;;;1.13;0.82;;;12.80;99.90;;;;;;5071955;28;20472;-75
2023/09/16 05:45:02;;;;;;;0.50;0.50;;;12.80;99.90;;;;;;5071915;28;20209;-75
2023/09/16 05:47:31;;;;;;;0.50;0.50;;;12.90;99.90;;;;;;5071745;28;20189;-75
2023/09/16 05:49:57;;;;;;;0.40;0.40;;;13.00;99.90;;;;;;5071918;28;20569;-74
2023/09/16 05:52:23;;;;;;;0.60;0.60;;;13.00;99.90;;;;;;5071872;28;20197;-75
2023/09/16 05:54:49;;;;;;;4.57;2.45;;;13.10;99.90;;;;;;5072002;28;20195;-75
2023/09/16 05:57:14;;;;;;;0.43;0.43;;;13.10;99.90;;;;;;5071539;28;20274;-75
2023/09/16 05:59:40;;;;;;;0.55;0.55;;;13.30;99.90;;;;;;5071875;28;20238;-75
2023/09/16 06:02:06;;;;;;;0.40;0.40;;;13.40;99.90;;;;;;5053853;28;20288;-74
2023/09/16 06:04:31;;;;;;;0.40;0.40;;;13.50;99.90;;;;;;5071818;28;20311;-71
2023/09/16 06:06:57;;;;;;;0.40;0.40;;;13.70;99.90;;;;;;5071905;28;20205;-70
2023/09/16 06:09:23;;;;;;;0.60;0.60;;;13.80;99.90;;;;;;5071778;28;20216;-71
2023/09/16 06:11:48;;;;;;;0.50;0.50;;;13.90;99.90;;;;;;5068243;28;20235;-71
2023/09/16 06:14:14;;;;;;;0.77;0.77;;;14.10;99.90;;;;;;5051803;28;20189;-71
2023/09/16 06:16:40;;;;;;;0.60;0.60;;;14.30;99.90;;;;;;5076995;28;20204;-70
2023/09/16 06:19:05;;;;;;;0.55;0.55;;;14.50;99.90;;;;;;5092007;28;20188;-70
2023/09/16 06:21:31;;;;;;;0.50;0.50;;;14.50;99.90;;;;;;5091775;28;20224;-71
2023/09/16 06:23:57;;;;;;;0.70;0.70;;;14.60;99.90;;;;;;5091732;28;20200;-71
2023/09/16 06:26:23;;;;;;;0.75;0.70;;;14.70;99.90;;;;;;5091572;28;20200;-71
2023/09/16 06:28:49;;;;;;;0.98;0.90;;;14.70;99.90;;;;;;5073853;28;20616;-71
2023/09/16 06:31:15;;;;;;;0.55;0.55;;;14.70;99.90;;;;;;5082370;28;20189;-71
2023/09/16 06:33:41;;;;;;;0.50;0.50;;;14.80;99.90;;;;;;5071476;28;20193;-71
2023/09/16 06:36:06;;;;;;;3.53;1.50;;;14.90;99.90;;;;;;5071536;28;20193;-71
2023/09/16 06:38:32;;;;;;;0.68;0.68;;;14.90;99.90;;;;;;5071353;28;20189;-70
2023/09/16 06:40:58;;;;;;;0.43;0.43;;;14.90;99.90;;;;;;5072767;28;20228;-71
2023/09/16 06:43:23;;;;;;;0.63;0.63;;;14.90;99.90;;;;;;5075232;28;20205;-71
2023/09/16 06:45:50;;;;;;;0.63;0.60;;;14.90;99.90;;;;;;5075130;28;20204;-71
2023/09/16 06:48:16;;;;;;;0.40;0.40;;;14.90;99.90;;;;;;5075058;28;20276;-71
2023/09/16 06:50:43;;;;;;;0.57;0.57;;;15.00;99.90;;;;;;5075303;28;20526;-70
2023/09/16 06:53:08;;;;;;;0.55;0.55;;;15.00;99.90;;;;;;5074723;28;20284;-70
2023/09/16 06:55:34;;;;;;;0.55;0.55;;;15.00;99.90;;;;;;5074999;28;20286;-70
2023/09/16 06:58:04;;;;;;;0.40;0.40;;;15.00;99.90;;;;;;5075065;28;20271;-71
2023/09/16 07:00:30;;;;;;;0.35;0.35;;;15.10;99.90;;;;;;5074955;28;20662;-70
2023/09/16 07:02:57;;;;;;;0.70;0.70;;;15.10;99.90;;;;;;5075036;28;20200;-71
2023/09/16 07:05:23;;;;;;;0.45;0.45;;;15.10;99.90;;;;;;5074542;28;20699;-71
2023/09/16 07:07:48;;;;;;;0.50;0.50;;;15.10;99.90;;;;;;5074875;28;20191;-70
2023/09/16 07:10:14;;;;;;;0.43;0.43;;;15.20;99.90;;;;;;5074794;28;20722;-71
2023/09/16 07:12:39;;;;;;;0.40;0.40;;;15.30;99.90;;;;;;5074316;28;20204;-70
2023/09/16 07:15:05;;;;;;;0.82;0.82;;;15.30;99.90;;;;;;5056929;28;20680;-71
2023/09/16 07:17:33;;;;;;;0.60;0.60;;;15.40;99.90;;;;;;5056655;28;20569;-70
2023/09/16 07:19:59;;;;;;;0.70;0.70;;;15.50;99.90;;;;;;5074744;28;20624;-71
2023/09/16 07:22:25;;;;;;;0.30;0.30;;;15.50;99.90;;;;;;5074486;28;20275;-71
2023/09/16 07:24:51;;;;;;;0.45;0.45;;;15.50;99.90;;;;;;5074470;28;20223;-71
2023/09/16 07:27:17;;;;;;;0.52;0.52;;;15.60;99.90;;;;;;5074540;28;20184;-71
2023/09/16 07:29:43;;;;;;;1.13;1.02;;;15.80;99.90;;;;;;5074297;28;20727;-71
2023/09/16 07:32:09;;;;;;;0.45;0.45;;;16.00;99.90;;;;;;5074192;28;20250;-70
2023/09/16 07:34:35;;;;;;;0.70;0.70;;;16.20;99.90;;;;;;5074510;28;20582;-71
2023/09/16 07:37:03;;;;;;;0.63;0.63;;;16.20;99.90;;;;;;5074261;28;20196;-71
2023/09/16 07:39:29;;;;;;;0.60;0.60;;;16.30;99.90;;;;;;5074214;28;20197;-71
2023/09/16 07:41:55;;;;;;;0.65;0.65;;;16.50;99.90;;;;;;5074195;28;20215;-71
2023/09/16 07:44:21;;;;;;;0.40;0.40;;;16.60;99.90;;;;;;5073873;28;20280;-71
2023/09/16 07:46:48;;;;;;;0.52;0.52;;;16.80;99.90;;;;;;5056283;28;20583;-71
2023/09/16 07:49:14;;;;;;;3.10;0.93;;;17.00;99.90;;;;;;5073726;28;21093;-71
2023/09/16 07:51:40;;;;;;;0.40;0.40;;;17.10;99.90;;;;;;5073994;28;20201;-71
2023/09/16 07:54:07;;;;;;;0.63;0.63;;;17.30;99.90;;;;;;5074150;28;20193;-71
2023/09/16 07:56:33;;;;;;;0.60;0.60;;;17.40;99.90;;;;;;5074234;28;20268;-71
2023/09/16 07:58:59;;;;;;;0.65;0.65;;;17.50;99.90;;;;;;5073878;28;20200;-71
2023/09/16 08:01:24;;;;;;;0.70;0.70;;;17.30;99.90;;;;;;5073791;28;20598;-71
2023/09/16 08:03:50;;;;;;;0.95;0.90;;;17.20;99.90;;;;;;5073815;28;20196;-71
2023/09/16 08:06:16;;;;;;;0.43;0.43;;;17.10;99.90;;;;;;5074114;28;20260;-71
2023/09/16 08:08:41;;;;;;;0.45;0.45;;;17.10;99.90;;;;;;5073470;28;20535;-71
2023/09/16 08:11:07;;;;;;;0.80;0.77;;;17.00;99.90;;;;;;5073683;28;20199;-71
2023/09/16 08:13:33;;;;;;;0.40;0.40;;;17.00;99.90;;;;;;5073359;28;20258;-71
2023/09/16 08:15:59;;;;;;;0.60;0.60;;;17.10;99.90;;;;;;5073297;28;20546;-72
2023/09/16 08:18:25;;;;;;;0.85;0.85;;;17.30;99.90;;;;;;5073754;28;20245;-71
2023/09/16 08:20:50;;;;;;;0.90;0.90;;;17.70;99.90;;;;;;5073561;28;20275;-71
2023/09/16 08:23:16;;;;;;;0.60;0.60;;;18.20;99.90;;;;;;5073398;28;20875;-71
2023/09/16 08:25:42;;;;;;;0.40;0.40;;;18.40;99.90;;;;;;5073362;28;20285;-75
2023/09/16 08:28:08;;;;;;;0.63;0.63;;;18.20;99.90;;;;;;5073381;28;20272;-75
2023/09/16 08:30:33;;;;;;;0.40;0.40;;;18.10;99.90;;;;;;5073001;28;20565;-75
2023/09/16 08:32:59;;;;;;;0.65;0.65;;;18.10;99.90;;;;;;5073193;28;20189;-75
2023/09/16 08:35:27;;;;;;;0.40;0.40;;;18.10;99.90;;;;;;5073098;28;20204;-75
2023/09/16 08:37:58;;;;;;;0.88;0.80;;;17.80;99.90;;;;;;5055299;28;20193;-75
2023/09/16 08:40:25;;;;;;;0.65;0.65;;;17.70;99.90;;;;;;5072959;28;20196;-75
2023/09/16 08:43:21;;;;;;;0.30;0.30;;;17.70;99.90;;;;;;5073343;28;20271;-75
2023/09/16 08:45:59;;;;;;;0.30;0.30;;;17.80;99.90;;;;;;5071859;28;20219;-75
2023/09/16 08:48:26;;;;;;;0.73;0.73;;;17.80;99.90;;;;;;5072906;28;20226;-75
2023/09/16 08:50:54;;;;;;;0.77;0.77;;;18.00;99.90;;;;;;5073082;28;20196;-75
2023/09/16 08:53:21;;;;;;;0.40;0.40;;;18.10;99.90;;;;;;5072853;28;20642;-75
2023/09/16 08:55:48;;;;;;;0.50;0.50;;;18.00;99.90;;;;;;5072908;28;20212;-75
2023/09/16 08:58:15;;;;;;;0.40;0.40;;;17.80;99.90;;;;;;5072622;28;20193;-75
2023/09/16 09:00:41;;;;;;;0.40;0.40;;;17.80;99.90;;;;;;5072776;28;20197;-76
2023/09/16 09:03:07;;;;;;;0.63;0.63;;;17.90;99.90;;;;;;5072388;28;20203;-75
2023/09/16 09:05:35;;;;;;;0.40;0.40;;;17.80;99.90;;;;;;5072231;28;20598;-74
2023/09/16 09:08:00;;;;;;;0.32;0.32;;;17.90;99.90;;;;;;5072286;28;20193;-75
2023/09/16 09:10:27;;;;;;;0.40;0.40;;;17.90;99.90;;;;;;5072323;28;20188;-75
2023/09/16 09:12:53;;;;;;;0.40;0.40;;;18.10;99.90;;;;;;5071478;28;20312;-75
2023/09/16 09:15:20;;;;;;;0.40;0.40;;;18.30;99.90;;;;;;5072270;28;20275;-75
2023/09/16 09:17:50;;;;;;;0.57;0.57;;;18.20;99.90;;;;;;5072546;28;20250;-75
2023/09/16 09:20:25;;;;;;;1.00;0.90;;;18.20;99.90;;;;;;5072480;28;20189;-75
2023/09/16 09:22:51;;;;;;;0.57;0.57;;;18.00;99.90;;;;;;5072420;28;20271;-75
2023/09/16 09:25:24;;;;;;;0.60;0.50;;;17.80;99.90;;;;;;5072160;28;20205;-75
2023/09/16 09:27:50;;;;;;;0.30;0.30;;;17.50;99.90;;;;;;5072452;28;20250;-74
2023/09/16 09:30:19;;;;;;;0.50;0.50;;;17.50;99.90;;;;;;5072043;28;20192;-75
2023/09/16 09:32:45;;;;;;;0.40;0.40;;;17.90;99.90;;;;;;5072229;28;20185;-75
2023/09/16 09:35:12;;;;;;;2.65;1.45;;;18.00;99.90;;;;;;5072379;28;20219;-76
2023/09/16 09:37:39;;;;;;;0.90;0.70;;;17.80;99.90;;;;;;5072090;28;20291;-76
2023/09/16 09:40:12;;;;;;;0.45;0.45;;;17.70;99.90;;;;;;5072072;28;20278;-76
2023/09/16 09:42:56;;;;;;;0.40;0.40;;;17.60;99.90;;;;;;5071511;28;20342;-75
2023/09/16 09:45:24;;;;;;;0.77;0.73;;;17.50;99.90;;;;;;5071732;28;20277;-75
2023/09/16 09:47:51;;;;;;;0.82;0.82;;;17.40;99.90;;;;;;5072037;28;20215;-76
2023/09/16 09:50:19;;;;;;;0.47;0.47;;;17.60;99.90;;;;;;5072018;28;20189;-76
2023/09/16 09:52:48;;;;;;;0.75;0.65;;;17.90;99.90;;;;;;5072095;28;20247;-76
2023/09/16 09:55:20;;;;;;;0.50;0.50;;;18.80;99.90;;;;;;5071978;28;20698;-76
2023/09/16 09:57:47;;;;;;;0.40;0.40;;;19.80;99.90;;;;;;5072163;28;20562;-76
2023/09/16 10:00:18;;;;;;;0.40;0.40;;;20.40;99.90;;;;;;5071909;28;20217;-76
2023/09/16 10:02:45;;;;;;;0.52;0.52;;;20.40;99.90;;;;;;5071852;28;20268;-76
2023/09/16 10:05:21;;;;;;;0.30;0.30;;;20.00;99.90;;;;;;5071727;28;20221;-74
2023/09/16 10:07:48;;;;;;;0.50;0.45;;;19.70;99.90;;;;;;5071964;28;20189;-75
2023/09/16 10:10:22;;;;;;;0.40;0.40;;;19.80;99.90;;;;;;5071759;28;20516;-75
2023/09/16 10:12:52;;;;;;;0.80;0.45;;;19.70;99.90;;;;;;5071847;28;20189;-75
2023/09/16 10:15:35;;;;;;;0.52;0.50;;;19.50;99.90;;;;;;5071936;28;20284;-75
2023/09/16 10:18:02;;;;;;;0.40;0.40;;;19.50;99.90;;;;;;5075852;28;20207;-75
2023/09/16 10:20:34;;;;;;;9.18;1.20;;;19.10;99.90;;;;;;5075763;28;20188;-75
2023/09/16 10:23:00;;;;;;;0.47;0.47;;;19.40;99.90;;;;;;5075711;28;20196;-75
2023/09/16 10:25:28;;;;;;;0.32;0.32;;;19.90;99.90;;;;;;5075744;28;20246;-74
2023/09/16 10:27:58;;;;;;;0.70;0.70;;;20.30;99.90;;;;;;5075752;28;20188;-75
2023/09/16 10:30:25;;;;;;;0.38;0.38;;;20.30;99.90;;;;;;5074729;28;20182;-75
2023/09/16 10:32:52;;;;;;;0.40;0.40;;;20.20;99.90;;;;;;5075705;28;20185;-75
2023/09/16 10:35:19;;;;;;;1.40;0.60;;;20.50;99.90;;;;;;5075559;28;20664;-75
2023/09/16 10:37:48;;;;;;;0.47;0.47;;;20.70;99.90;;;;;;5075074;28;20189;-75
2023/09/16 10:40:16;;;;;;;0.30;0.30;;;20.70;99.90;;;;;;5075294;28;20583;-75
2023/09/16 10:42:44;;;;;;;0.75;0.50;;;20.80;99.90;;;;;;5075406;28;20545;-75
2023/09/16 10:45:13;;;;;;;0.63;0.50;;;20.40;99.90;;;;;;5075324;28;20763;-76
2023/09/16 10:47:40;;;;;;;0.35;0.35;;;19.90;99.90;;;;;;5075226;28;20719;-76
2023/09/16 10:50:06;;;;;;;0.40;0.40;;;19.50;99.90;;;;;;5075351;28;20193;-75
2023/09/16 10:52:46;;;;;;;0.70;0.60;;;19.30;99.90;;;;;;5074364;28;20268;-76
2023/09/16 10:55:29;;;;;;;0.40;0.40;;;19.10;99.90;;;;;;5075232;28;20242;-76
2023/09/16 10:58:13;;;;;;;0.47;0.47;;;18.90;99.90;;;;;;5075430;28;20199;-76
2023/09/16 11:00:43;;;;;;;0.30;0.30;;;18.80;99.90;;;;;;5074942;28;20200;-76
2023/09/16 11:03:13;;;;;;;0.40;0.40;;;18.70;99.90;;;;;;5075055;28;20193;-76
2023/09/16 11:05:40;;;;;;;0.40;0.40;;;18.70;99.90;;;;;;5074742;28;20224;-77
2023/09/16 11:08:09;;;;;;;0.43;0.43;;;18.80;99.90;;;;;;5075100;28;20185;-77
2023/09/16 11:10:36;;;;;;;0.65;0.50;;;19.00;99.90;;;;;;5074853;28;20274;-76
2023/09/16 11:13:03;;;;;;;0.38;0.38;;;19.10;99.90;;;;;;5075016;28;20193;-76
2023/09/16 11:15:33;;;;;;;0.40;0.40;;;19.30;99.90;;;;;;5074826;28;20191;-76
2023/09/16 11:18:10;;;;;;;0.40;0.40;;;19.20;99.90;;;;;;5074760;28;20721;-76
2023/09/16 11:20:39;;;;;;;1.17;0.47;;;19.30;99.90;;;;;;5074584;28;20562;-76
2023/09/16 11:23:06;;;;;;;0.30;0.30;;;19.20;99.90;;;;;;5074673;28;20599;-76
2023/09/16 11:25:34;;;;;;;0.70;0.60;;;19.20;99.90;;;;;;5074351;28;20608;-76
2023/09/16 11:28:06;;;;;;;0.60;0.60;;;19.40;99.90;;;;;;5073920;28;20189;-75
2023/09/16 11:30:33;;;;;;;1.13;0.73;;;19.60;99.90;;;;;;5073880;28;20660;-76
2023/09/16 11:32:58;;;;;;;0.60;0.60;;;19.60;99.90;;;;;;5074517;28;20675;-76
2023/09/16 11:35:28;;;;;;;1.17;1.08;;;19.50;99.90;;;;;;5055935;28;20233;-76
2023/09/16 11:37:54;;;;;;;0.70;0.57;;;19.40;99.90;;;;;;5074357;28;20193;-76
2023/09/16 11:40:32;;;;;;;0.55;0.55;;;19.60;99.90;;;;;;5074107;28;20678;-75
2023/09/16 11:42:58;;;;;;;0.30;0.30;;;19.40;99.90;;;;;;5074435;28;20650;-76
2023/09/16 11:45:25;;;;;;;0.65;0.63;;;19.60;99.90;;;;;;5073980;28;20625;-75
2023/09/16 11:47:51;;;;;;;0.30;0.30;;;19.50;99.90;;;;;;5074320;28;20189;-76
2023/09/16 11:50:24;;;;;;;0.80;0.60;;;19.40;99.90;;;;;;5074188;28;20299;-76
2023/09/16 11:52:50;;;;;;;1.20;0.95;;;19.20;99.90;;;;;;5074146;28;20234;-76
2023/09/16 11:55:17;;;;;;;0.43;0.43;;;19.10;99.90;;;;;;5074254;28;20648;-76
2023/09/16 11:57:43;;;;;;;1.13;0.52;;;19.00;99.90;;;;;;5073713;28;20621;-76
2023/09/16 12:00:11;;;;;;;0.63;0.63;;;19.20;99.90;;;;;;5073998;28;20238;-76
2023/09/16 12:02:37;;;;;;;0.65;0.65;;;19.10;99.90;;;;;;5073816;28;20201;-75
2023/09/16 12:05:03;;;;;;;0.60;0.60;;;18.80;99.90;;;;;;5055663;28;20267;-76
2023/09/16 12:07:34;;;;;;;0.65;0.65;;;18.50;99.90;;;;;;5073627;28;20199;-76
2023/09/16 12:10:03;;;;;;;0.40;0.40;;;18.50;99.90;;;;;;5073750;28;20250;-76
2023/09/16 12:12:29;;;;;;;2.10;0.60;;;18.60;99.90;;;;;;5073528;28;20211;-76
2023/09/16 12:15:02;;;;;;;0.57;0.55;;;18.60;99.90;;;;;;5073696;28;20180;-76
2023/09/16 12:17:28;;;;;;;0.60;0.60;;;18.70;99.90;;;;;;5091725;28;20207;-76
2023/09/16 12:19:55;;;;;;;0.35;0.35;;;18.40;99.90;;;;;;5093781;28;20199;-76
2023/09/16 12:22:21;;;;;;;0.30;0.30;;;18.40;99.90;;;;;;5093547;28;20276;-76
2023/09/16 12:24:51;;;;;;;0.57;0.57;;;18.60;99.90;;;;;;5087035;28;20275;-76
2023/09/16 12:27:17;;;;;;;0.40;0.40;;;19.20;99.90;;;;;;5073395;28;20694;-76
2023/09/16 12:29:43;;;;;;;1.42;1.17;;;19.40;99.90;;;;;;5055493;28;20230;-76
2023/09/16 12:32:10;;;;;;;1.17;0.82;;;19.80;99.90;;;;;;5072860;28;20565;-76
2023/09/16 12:34:36;;;;;;;0.30;0.30;;;20.00;99.90;;;;;;5073238;28;20558;-76
2023/09/16 12:37:02;;;;;;;0.30;0.30;;;20.00;99.90;;;;;;5073084;28;20288;-76
2023/09/16 12:39:29;;;;;;;0.30;0.30;;;20.20;99.90;;;;;;5072220;28;20541;-76
2023/09/16 12:41:58;;;;;;;1.00;0.80;;;19.90;99.90;;;;;;5073150;28;20652;-76
2023/09/16 12:44:25;;;;;;;0.50;0.50;;;19.80;99.90;;;;;;5072175;28;20226;-76
2023/09/16 12:46:51;;;;;;;1.63;0.90;;;20.20;99.90;;;;;;5054308;28;20299;-76